createdAt,value
2019-06-08T00:10:37.150Z,17.15
2019-06-08T00:25:40.844Z,17.87
2019-06-08T00:40:45.636Z,19.23
2019-06-08T00:55:49.219Z,18.70
2019-06-08T01:10:52.793Z,20.75
2019-06-08T01:25:56.387Z,17.92
2019-06-08T01:41:00.226Z,18.10
2019-06-08T01:56:04.853Z,21.05
2019-06-08T02:11:08.404Z,19.52
2019-06-08T02:26:12.008Z,19.42
2019-06-08T02:41:15.601Z,19.23
2019-06-08T02:56:19.183Z,19.17
2019-06-08T03:11:22.746Z,21.48
2019-06-08T03:26:26.328Z,22.02
2019-06-08T03:41:29.882Z,22.32
2019-06-08T03:56:33.496Z,22.45
2019-06-08T04:11:37.791Z,27.50
2019-06-08T04:26:42.894Z,25.05
2019-06-08T04:41:47.258Z,22.97
2019-06-08T04:56:51.023Z,22.15
2019-06-08T05:11:54.672Z,21.27
2019-06-08T05:26:58.279Z,17.75
2019-06-08T05:42:01.865Z,13.60
2019-06-08T05:57:05.484Z,11.12
2019-06-08T06:12:09.060Z,9.60
2019-06-08T06:27:12.643Z,8.78
2019-06-08T06:42:16.228Z,7.60
2019-06-08T06:57:19.847Z,6.80
2019-06-08T07:12:23.411Z,6.55
2019-06-08T07:27:26.994Z,5.90
2019-06-08T07:42:30.591Z,4.95
2019-06-08T07:57:34.204Z,4.20
2019-06-08T08:12:37.821Z,4.05
2019-06-08T08:27:41.396Z,3.50
2019-06-08T08:42:44.983Z,3.40
2019-06-08T08:57:48.599Z,2.80
2019-06-08T09:12:53.683Z,2.20
2019-06-08T09:28:01.262Z,2.00
2019-06-08T09:43:08.539Z,1.47
2019-06-08T09:58:11.698Z,1.33
2019-06-08T10:13:13.596Z,1.17
2019-06-08T10:28:21.480Z,1.32
2019-06-08T10:58:34.290Z,1.50
2019-06-08T11:13:40.063Z,1.65
2019-06-08T11:28:51.248Z,1.42
2019-06-08T11:43:59.821Z,1.40
2019-06-08T11:59:05.690Z,1.42
2019-06-08T12:14:11.076Z,1.20
2019-06-08T12:29:16.667Z,1.50
2019-06-08T12:44:25.943Z,1.57
2019-06-08T12:59:28.565Z,1.45
2019-06-08T13:14:32.256Z,1.52
2019-06-08T13:29:35.868Z,25.20
2019-06-08T13:44:39.478Z,36.48
2019-06-08T13:59:43.530Z,26.73
2019-06-08T14:14:48.012Z,19.00
2019-06-08T14:29:51.768Z,13.15
2019-06-08T14:44:57.726Z,11.50
2019-06-08T15:00:08.358Z,7.35
2019-06-08T15:30:13.187Z,5.37
2019-06-08T15:45:18.378Z,4.20
2019-06-08T16:00:23.030Z,3.85
2019-06-08T16:15:26.924Z,3.15
2019-06-08T16:30:31.049Z,3.25
2019-06-08T16:45:35.245Z,2.60
2019-06-08T17:00:42.107Z,2.58
2019-06-08T17:15:44.662Z,2.20
2019-06-08T17:30:48.282Z,2.00
2019-06-08T17:45:51.847Z,1.70
2019-06-08T18:00:55.408Z,1.70
2019-06-08T18:15:58.986Z,1.52
2019-06-08T18:31:02.554Z,1.72
2019-06-08T18:46:07.043Z,2.00
2019-06-08T19:01:10.841Z,2.37
2019-06-08T19:16:14.393Z,2.27
2019-06-08T19:31:18.137Z,2.50
2019-06-08T19:46:21.749Z,4.00
2019-06-08T20:01:27.757Z,4.08
2019-06-08T20:16:30.583Z,7.03
2019-06-08T20:31:34.197Z,5.08
2019-06-08T20:46:37.950Z,6.08
2019-06-08T21:01:41.543Z,6.20
2019-06-08T21:16:49.015Z,5.97
2019-06-08T21:31:55.240Z,6.58
2019-06-08T21:47:01.287Z,7.67
2019-06-08T22:02:04.135Z,6.25
2019-06-08T22:17:08.167Z,7.00
2019-06-08T22:32:11.826Z,6.62
2019-06-08T22:47:18.462Z,7.25
2019-06-08T23:02:21.180Z,6.90
2019-06-08T23:17:24.762Z,7.10
2019-06-08T23:32:28.554Z,6.53
2019-06-08T23:47:32.120Z,6.15
